Time;durP1;ratioP1;P1;durP2;ratioP2;P2;SDS_P1;SDS_P2;PMS_P1;PMS_P2;Temp;Humidity;BMP_temperature;BMP_pressure;BME280_temperature;BME280_humidity;BME280_pressure;Samples;Min_cycle;Max_cycle;Signal;HPM_P1;HPM_P2
2022/06/17 00:00:29;;;;;;;;;;;;;;;13.02;70.22;99371.53;4211774;28;19959;-70
2022/06/17 00:02:30;;;;;;;;;;;;;;;12.98;70.96;99373.44;4208984;28;19960;-70
2022/06/17 00:04:30;;;;;;;;;;;;;;;12.99;71.05;99365.91;4216784;28;20669;-70
2022/06/17 00:06:36;;;;;;;;;;;;;;;13.01;70.70;99369.94;4212170;28;19920;-70
2022/06/17 00:08:38;;;;;;;;;;;;;;;13.08;70.56;99367.25;4213397;28;19935;-70
2022/06/17 00:10:38;;;;;;;;;;;;;;;13.12;70.19;99361.75;4220185;28;19959;-70
2022/06/17 00:12:39;;;;;;;;;;;;;;;13.17;69.99;99369.78;4211770;28;20368;-70
2022/06/17 00:16:59;;;;;;;;;;;;;;;13.32;69.30;99377.19;4212387;28;19965;-70
2022/06/17 00:18:59;;;;;;;;;;;;;;;13.36;69.05;99380.00;4207758;28;20383;-70
2022/06/17 00:21:00;;;;;;;;;;;;;;;13.39;68.84;99382.03;4212377;28;19916;-70
2022/06/17 00:23:00;;;;;;;;;;;;;;;13.38;68.83;99375.66;4211998;28;19923;-70
2022/06/17 00:25:01;;;;;;;;;;;;;;;13.39;68.97;99370.91;4207053;28;19982;-70
2022/06/17 00:27:02;;;;;;;;;;;;;;;13.37;68.99;99365.72;4215072;28;19919;-70
2022/06/17 00:29:02;;;;;;;;;;;;;;;13.37;68.82;99370.50;4208910;28;20403;-70
2022/06/17 00:31:02;;;;;;;;;;;;;;;13.39;69.35;99385.59;4209782;28;19994;-70
2022/06/17 00:33:02;;;;;;;;;;;;;;;13.27;69.88;99369.16;4212697;28;19919;-70
2022/06/17 00:35:03;;;;;;;;;;;;;;;13.28;68.95;99378.31;4217823;28;20591;-70
2022/06/17 00:37:06;;;;;;;;;;;;;;;13.35;68.27;99378.41;4211048;27;20014;-69
2022/06/17 00:39:12;;;;;;;;;;;;;;;13.38;68.21;99377.66;4207589;28;20018;-70
2022/06/17 00:41:25;;;;;;;;;;;;;;;13.30;69.30;99378.72;4211744;28;19916;-70
2022/06/17 00:43:28;;;;;;;;;;;;;;;13.25;68.21;99370.72;4213444;28;19920;-70
2022/06/17 00:45:31;;;;;;;;;;;;;;;13.25;68.31;99370.72;4211544;28;20379;-70
2022/06/17 00:47:35;;;;;;;;;;;;;;;13.17;69.40;99362.25;4212205;28;20260;-70
2022/06/17 00:49:42;;;;;;;;;;;;;;;13.10;69.22;99372.44;4208600;28;20298;-70
2022/06/17 00:51:45;;;;;;;;;;;;;;;13.05;69.46;99379.09;4216491;28;20143;-70
2022/06/17 00:53:55;;;;;;;;;;;;;;;12.98;69.65;99372.63;4211232;28;20305;-70
2022/06/17 00:56:00;;;;;;;;;;;;;;;12.96;69.66;99377.75;4208855;28;19924;-70
2022/06/17 00:58:04;;;;;;;;;;;;;;;12.88;70.04;99387.94;4211889;28;19912;-70
2022/06/17 01:00:04;;;;;;;;;;;;;;;12.82;70.27;99381.09;4211176;28;20289;-70
2022/06/17 01:02:07;;;;;;;;;;;;;;;12.80;70.25;99391.78;4209980;28;20068;-70
2022/06/17 01:04:10;;;;;;;;;;;;;;;12.73;71.29;99391.66;4218604;28;19922;-70
2022/06/17 01:06:12;;;;;;;;;;;;;;;12.67;71.93;99390.38;4212790;28;19956;-70
2022/06/17 01:09:57;;;;;;;;;;;;;;;12.60;71.94;99394.63;4212042;28;19999;-70
2022/06/17 01:10:41;;;;;;;;;;;;;;;12.57;71.79;99395.34;4206346;28;20301;-70
2022/06/17 01:12:44;;;;;;;;;;;;;;;12.51;71.86;99384.94;4214086;28;20361;-70
2022/06/17 01:14:44;;;;;;;;;;;;;;;12.43;72.39;99380.44;4210579;28;20283;-70
2022/06/17 01:16:46;;;;;;;;;;;;;;;12.41;72.49;99385.53;4216857;28;19916;-70
2022/06/17 01:18:47;;;;;;;;;;;;;;;12.38;72.32;99381.53;4210618;28;19924;-70
2022/06/17 01:20:49;;;;;;;;;;;;;;;12.27;73.04;99386.88;4213254;28;19927;-70
2022/06/17 01:22:54;;;;;;;;;;;;;;;12.12;74.07;99389.75;4214921;28;20166;-70
2022/06/17 01:25:04;;;;;;;;;;;;;;;12.03;74.51;99389.97;4207565;28;19920;-70
2022/06/17 01:27:05;;;;;;;;;;;;;;;11.90;75.00;99386.53;4213578;28;20293;-70
2022/06/17 01:29:15;;;;;;;;;;;;;;;11.88;75.02;99385.28;4212677;28;19931;-70
2022/06/17 01:31:15;;;;;;;;;;;;;;;11.81;75.33;99381.19;4213049;28;19976;-70
2022/06/17 01:33:22;;;;;;;;;;;;;;;11.77;75.49;99380.31;4211317;28;20084;-70
2022/06/17 01:35:24;;;;;;;;;;;;;;;11.76;75.67;99391.75;4214342;28;20022;-70
2022/06/17 01:37:25;;;;;;;;;;;;;;;11.75;75.21;99385.41;4211811;28;20081;-70
2022/06/17 01:39:25;;;;;;;;;;;;;;;11.73;75.61;99384.94;4205187;28;19961;-70
2022/06/17 01:41:30;;;;;;;;;;;;;;;11.67;75.84;99385.63;4210966;28;20394;-70
2022/06/17 01:43:44;;;;;;;;;;;;;;;11.66;75.98;99392.31;4215752;28;20079;-70
2022/06/17 01:45:47;;;;;;;;;;;;;;;11.61;76.15;99396.19;4207340;28;19920;-70
2022/06/17 01:47:47;;;;;;;;;;;;;;;11.63;76.33;99396.63;4208500;28;20113;-70
2022/06/17 01:49:51;;;;;;;;;;;;;;;11.61;76.49;99395.38;4211880;28;19920;-70
2022/06/17 01:52:03;;;;;;;;;;;;;;;11.63;76.28;99391.06;4215119;28;19916;-70
2022/06/17 01:54:09;;;;;;;;;;;;;;;11.63;76.54;99395.81;4207545;28;19926;-70
2022/06/17 01:56:12;;;;;;;;;;;;;;;11.65;75.66;99393.47;4208948;28;19924;-70
2022/06/17 01:58:28;;;;;;;;;;;;;;;11.62;75.72;99392.25;4215683;28;20287;-70
2022/06/17 02:00:29;;;;;;;;;;;;;;;11.62;75.17;99386.69;4210787;28;19926;-70
2022/06/17 02:02:30;;;;;;;;;;;;;;;11.59;76.33;99392.19;4209904;28;20316;-70
2022/06/17 02:04:32;;;;;;;;;;;;;;;11.54;76.96;99384.94;4211970;28;20311;-70
2022/06/17 02:06:32;;;;;;;;;;;;;;;11.52;76.61;99381.72;4213136;28;19924;-70
2022/06/17 02:08:33;;;;;;;;;;;;;;;11.49;77.26;99379.66;4206849;28;20244;-70
2022/06/17 02:10:37;;;;;;;;;;;;;;;11.44;77.36;99388.28;4211487;28;20334;-70
2022/06/17 02:12:38;;;;;;;;;;;;;;;11.43;77.29;99381.94;4211674;28;19920;-70
2022/06/17 02:14:38;;;;;;;;;;;;;;;11.43;77.25;99375.59;4212391;28;20005;-70
2022/06/17 02:16:44;;;;;;;;;;;;;;;11.39;77.38;99383.00;4213452;28;20089;-70
2022/06/17 02:18:45;;;;;;;;;;;;;;;11.33;77.19;99378.91;4211576;28;20173;-70
2022/06/17 02:20:50;;;;;;;;;;;;;;;11.26;78.09;99376.81;4212027;28;19916;-70
2022/06/17 02:22:52;;;;;;;;;;;;;;;11.27;76.18;99377.59;4219694;28;19965;-70
2022/06/17 02:24:55;;;;;;;;;;;;;;;11.24;77.42;99382.69;4216307;28;20317;-70
2022/06/17 02:26:58;;;;;;;;;;;;;;;11.20;77.66;99383.78;4214756;28;19963;-70
2022/06/17 02:29:00;;;;;;;;;;;;;;;11.12;78.36;99393.06;4209702;28;19919;-70
2022/06/17 02:31:01;;;;;;;;;;;;;;;11.13;77.16;99389.16;4218085;28;20024;-70
2022/06/17 02:33:03;;;;;;;;;;;;;;;11.02;78.03;99382.56;4196253;28;20305;-70
2022/06/17 02:35:15;;;;;;;;;;;;;;;10.89;78.45;99390.16;4214679;28;20405;-69
2022/06/17 02:37:16;;;;;;;;;;;;;;;10.84;76.63;99390.41;4211335;27;20010;-69
2022/06/17 02:39:16;;;;;;;;;;;;;;;10.73;79.77;99387.38;4210980;28;20229;-70
2022/06/17 02:41:19;;;;;;;;;;;;;;;10.74;79.32;99385.41;4215151;28;20160;-70
2022/06/17 02:43:21;;;;;;;;;;;;;;;10.79;77.68;99387.91;4214254;28;19916;-70
2022/06/17 02:45:23;;;;;;;;;;;;;;;10.84;77.01;99380.16;4210924;28;19928;-70
2022/06/17 02:47:25;;;;;;;;;;;;;;;10.88;78.08;99385.78;4209450;28;19924;-70
2022/06/17 02:49:26;;;;;;;;;;;;;;;10.89;76.94;99399.25;4217182;28;20272;-70
2022/06/17 02:51:29;;;;;;;;;;;;;;;10.89;76.86;99387.38;4217908;28;20427;-70
2022/06/17 02:53:31;;;;;;;;;;;;;;;10.91;76.81;99387.81;4209046;28;20014;-70
2022/06/17 02:55:36;;;;;;;;;;;;;;;10.83;77.76;99386.84;4216201;28;20351;-70
2022/06/17 02:57:36;;;;;;;;;;;;;;;10.77;78.47;99391.06;4216554;28;19920;-70
2022/06/17 02:59:40;;;;;;;;;;;;;;;10.69;78.01;99389.25;4209598;28;20301;-70
2022/06/17 03:01:41;;;;;;;;;;;;;;;10.72;76.70;99390.50;4211437;28;20307;-70
2022/06/17 03:03:42;;;;;;;;;;;;;;;10.85;75.82;99392.84;4216580;28;19920;-70
2022/06/17 03:05:43;;;;;;;;;;;;;;;10.85;75.70;99395.59;4209056;28;20443;-70
2022/06/17 03:07:44;;;;;;;;;;;;;;;10.80;77.23;99384.00;4215231;28;20326;-70
2022/06/17 03:09:45;;;;;;;;;;;;;;;10.70;78.80;99399.16;4214528;28;19916;-70
2022/06/17 03:11:48;;;;;;;;;;;;;;;10.61;79.23;99401.31;4210002;28;20002;-70
2022/06/17 03:13:51;;;;;;;;;;;;;;;10.56;79.06;99388.53;4212650;28;19939;-70
2022/06/17 03:15:52;;;;;;;;;;;;;;;10.48;79.55;99399.75;4212547;28;19920;-70
2022/06/17 03:17:53;;;;;;;;;;;;;;;10.44;78.70;99399.69;4213370;28;19919;-70
2022/06/17 03:19:54;;;;;;;;;;;;;;;10.40;78.69;99390.47;4215172;28;19916;-70
2022/06/17 03:21:55;;;;;;;;;;;;;;;10.35;79.70;99388.78;4208525;28;19927;-70
2022/06/17 03:24:11;;;;;;;;;;;;;;;10.39;78.54;99399.94;4217107;28;20333;-70
2022/06/17 03:26:13;;;;;;;;;;;;;;;10.38;79.00;99396.38;4210562;28;19923;-70
2022/06/17 03:28:18;;;;;;;;;;;;;;;10.34;78.91;99401.00;4214872;28;19922;-70
2022/06/17 03:30:21;;;;;;;;;;;;;;;10.35;78.87;99399.03;4211458;28;19923;-70
2022/06/17 03:32:24;;;;;;;;;;;;;;;10.37;78.54;99397.53;4213271;28;19920;-70
2022/06/17 03:34:30;;;;;;;;;;;;;;;10.35;80.05;99401.81;4209004;28;20312;-70
2022/06/17 03:36:35;;;;;;;;;;;;;;;10.26;81.55;99399.22;4213475;27;19920;-70
2022/06/17 03:38:49;;;;;;;;;;;;;;;10.18;81.54;99404.84;4208795;28;20372;-70
2022/06/17 03:40:53;;;;;;;;;;;;;;;10.12;82.13;99398.78;4207588;28;19920;-70
2022/06/17 03:43:04;;;;;;;;;;;;;;;10.06;83.58;99403.75;4212585;28;19996;-70
2022/06/17 03:45:09;;;;;;;;;;;;;;;10.06;83.37;99400.97;4213330;28;19916;-70
2022/06/17 03:47:30;;;;;;;;;;;;;;;10.11;83.58;99406.28;4212884;28;19934;-70
2022/06/17 03:49:41;;;;;;;;;;;;;;;10.12;82.37;99396.81;4205487;28;19963;-70
2022/06/17 03:51:42;;;;;;;;;;;;;;;10.15;82.83;99409.13;4208799;28;20305;-70
2022/06/17 03:53:43;;;;;;;;;;;;;;;10.15;82.67;99417.41;4210250;28;19916;-70
2022/06/17 03:55:43;;;;;;;;;;;;;;;10.16;82.02;99421.00;4209994;28;20253;-70
2022/06/17 03:57:45;;;;;;;;;;;;;;;10.14;82.75;99415.81;4218849;28;19923;-70
2022/06/17 03:59:47;;;;;;;;;;;;;;;10.22;81.21;99416.81;4212559;28;19920;-70
2022/06/17 04:01:54;;;;;;;;;;;;;;;10.36;79.08;99420.81;4213399;28;19927;-70
2022/06/17 04:03:56;;;;;;;;;;;;;;;10.51;78.87;99413.72;4212476;28;20393;-70
2022/06/17 04:06:05;;;;;;;;;;;;;;;10.64;78.17;99417.19;4207908;28;19938;-70
2022/06/17 04:08:05;;;;;;;;;;;;;;;10.70;79.71;99424.09;4214192;28;20039;-70
2022/06/17 04:10:06;;;;;;;;;;;;;;;10.72;80.78;99423.72;4208322;28;19928;-70
2022/06/17 04:12:12;;;;;;;;;;;;;;;10.72;79.91;99421.75;4209949;28;19916;-69
2022/06/17 04:14:18;;;;;;;;;;;;;;;10.81;77.57;99418.81;4212540;28;19920;-70
2022/06/17 04:16:23;;;;;;;;;;;;;;;10.95;77.11;99416.41;4212106;28;19923;-69
2022/06/17 04:18:23;;;;;;;;;;;;;;;11.08;76.71;99415.13;4213585;28;20402;-69
2022/06/17 04:20:41;;;;;;;;;;;;;;;11.14;77.37;99418.44;4214463;28;19916;-68
2022/06/17 04:22:44;;;;;;;;;;;;;;;11.16;77.28;99418.88;4214766;28;19926;-69
2022/06/17 04:24:46;;;;;;;;;;;;;;;11.20;76.69;99430.88;4213531;28;19964;-70
2022/06/17 04:26:48;;;;;;;;;;;;;;;11.22;77.30;99437.66;4214485;28;20205;-70
2022/06/17 04:28:50;;;;;;;;;;;;;;;11.21;77.72;99438.00;4208467;28;20325;-69
2022/06/17 04:30:54;;;;;;;;;;;;;;;11.20;78.46;99441.94;4209937;28;19939;-70
2022/06/17 04:33:03;;;;;;;;;;;;;;;11.22;79.83;99445.16;4214177;28;19965;-70
2022/06/17 04:35:03;;;;;;;;;;;;;;;11.23;79.94;99458.63;4208091;28;19955;-70
2022/06/17 04:37:05;;;;;;;;;;;;;;;11.25;80.18;99455.50;4208189;28;20441;-70
2022/06/17 04:39:24;;;;;;;;;;;;;;;11.27;80.32;99463.47;4207573;28;19931;-70
2022/06/17 04:41:28;;;;;;;;;;;;;;;11.32;79.85;99463.19;4210179;28;19993;-70
2022/06/17 04:43:28;;;;;;;;;;;;;;;11.34;80.01;99467.22;4213062;28;19916;-70
2022/06/17 04:45:29;;;;;;;;;;;;;;;11.41;78.87;99461.03;4207576;28;19994;-70
2022/06/17 04:47:31;;;;;;;;;;;;;;;11.44;79.49;99469.44;4218638;28;19969;-70
2022/06/17 04:49:34;;;;;;;;;;;;;;;11.52;79.04;99468.44;4213539;28;20385;-70
2022/06/17 04:51:34;;;;;;;;;;;;;;;11.62;78.89;99469.84;4211398;28;19947;-70
2022/06/17 04:53:35;;;;;;;;;;;;;;;11.72;78.46;99471.25;4209806;28;19920;-70
2022/06/17 04:55:39;;;;;;;;;;;;;;;11.79;78.26;99466.69;4208185;28;19958;-70
2022/06/17 04:57:39;;;;;;;;;;;;;;;11.88;77.05;99463.72;4152439;28;19928;-70
2022/06/17 04:59:41;;;;;;;;;;;;;;;11.98;77.20;99467.91;4196735;28;19977;-70
2022/06/17 05:01:42;;;;;;;;;;;;;;;12.08;76.91;99472.88;4209951;28;19920;-70
2022/06/17 05:03:42;;;;;;;;;;;;;;;12.21;76.81;99468.78;4190117;28;19927;-70
2022/06/17 05:05:44;;;;;;;;;;;;;;;12.34;76.54;99466.69;4210868;28;19947;-70
2022/06/17 05:07:46;;;;;;;;;;;;;;;12.47;75.53;99473.69;4208996;28;20002;-70
2022/06/17 05:09:50;;;;;;;;;;;;;;;12.57;75.56;99463.94;4208099;28;20574;-70
2022/06/17 05:11:54;;;;;;;;;;;;;;;12.64;74.67;99473.22;4214446;28;19920;-70
2022/06/17 05:14:02;;;;;;;;;;;;;;;12.77;74.95;99473.88;4206843;28;19969;-70
2022/06/17 05:16:02;;;;;;;;;;;;;;;12.92;75.56;99466.59;4207106;28;19982;-70
2022/06/17 05:18:02;;;;;;;;;;;;;;;13.06;74.00;99477.13;4212916;28;19928;-69
2022/06/17 05:20:03;;;;;;;;;;;;;;;13.20;71.91;99477.41;4206117;28;20268;-69
2022/06/17 05:22:09;;;;;;;;;;;;;;;13.33;72.12;99480.81;4211809;28;19916;-69
2022/06/17 05:24:11;;;;;;;;;;;;;;;13.35;72.17;99486.81;4209012;28;19965;-70
2022/06/17 05:26:11;;;;;;;;;;;;;;;13.48;72.20;99474.28;4207332;28;19920;-70
2022/06/17 05:28:16;;;;;;;;;;;;;;;13.47;71.46;99483.81;4212163;28;19923;-70
2022/06/17 05:30:16;;;;;;;;;;;;;;;13.60;71.44;99474.09;4210829;28;19916;-70
2022/06/17 05:32:19;;;;;;;;;;;;;;;13.74;70.83;99471.53;4216828;28;19973;-70
2022/06/17 05:34:19;;;;;;;;;;;;;;;13.91;71.75;99470.19;4206590;28;19920;-70
2022/06/17 05:36:19;;;;;;;;;;;;;;;14.05;70.97;99462.00;4213412;28;19976;-70
2022/06/17 05:38:19;;;;;;;;;;;;;;;14.18;69.93;99465.38;4212030;28;19922;-70
2022/06/17 05:40:20;;;;;;;;;;;;;;;14.26;70.22;99464.28;4211999;28;20075;-70
2022/06/17 05:42:20;;;;;;;;;;;;;;;14.41;69.71;99467.25;4207862;28;20259;-70
2022/06/17 05:44:20;;;;;;;;;;;;;;;14.45;68.20;99468.06;4214080;28;19916;-70
2022/06/17 05:46:20;;;;;;;;;;;;;;;14.50;67.23;99470.56;4216636;28;19916;-70
2022/06/17 05:48:21;;;;;;;;;;;;;;;14.61;66.77;99469.50;4206215;28;20343;-70
2022/06/17 05:50:22;;;;;;;;;;;;;;;14.74;66.92;99472.81;4211341;28;19999;-70
2022/06/17 05:52:22;;;;;;;;;;;;;;;14.83;65.24;99478.09;4210483;28;19920;-70
2022/06/17 05:54:22;;;;;;;;;;;;;;;14.89;65.64;99480.16;4218426;28;19916;-70
2022/06/17 05:56:23;;;;;;;;;;;;;;;14.95;65.95;99477.00;4214312;28;20113;-70
2022/06/17 05:58:24;;;;;;;;;;;;;;;15.04;65.18;99475.50;4212709;28;20388;-70
2022/06/17 06:00:25;;;;;;;;;;;;;;;15.07;64.92;99477.53;4211419;28;19920;-70
2022/06/17 06:02:25;;;;;;;;;;;;;;;15.12;66.08;99479.94;4216350;28;20306;-70
2022/06/17 06:04:26;;;;;;;;;;;;;;;15.19;66.50;99482.00;4214539;28;20251;-70
2022/06/17 06:06:26;;;;;;;;;;;;;;;15.26;65.62;99475.69;4212273;28;20118;-70
2022/06/17 06:08:26;;;;;;;;;;;;;;;15.32;65.38;99474.97;4215234;28;19923;-70
2022/06/17 06:10:27;;;;;;;;;;;;;;;15.35;64.76;99471.38;4216263;28;19919;-70
2022/06/17 06:12:53;;;;;;;;;;;;;;;15.38;64.66;99475.38;4216643;28;20513;-70
2022/06/17 06:14:47;;;;;;;;;;;;;;;15.45;65.11;99487.41;4217509;28;20314;-70
2022/06/17 06:16:48;;;;;;;;;;;;;;;15.54;64.37;99486.25;4215210;28;20022;-70
2022/06/17 06:18:50;;;;;;;;;;;;;;;15.63;64.13;99483.97;4213551;28;19927;-70
2022/06/17 06:20:51;;;;;;;;;;;;;;;15.66;61.99;99489.59;4215236;28;19961;-70
2022/06/17 06:22:51;;;;;;;;;;;;;;;15.71;62.58;99478.06;4213999;28;20523;-70
2022/06/17 06:24:51;;;;;;;;;;;;;;;15.75;62.26;99482.88;4214013;28;19912;-70
2022/06/17 06:26:52;;;;;;;;;;;;;;;15.81;62.47;99492.50;4215172;28;20309;-70
2022/06/17 06:28:52;;;;;;;;;;;;;;;15.87;62.75;99496.50;4216681;28;20008;-70
2022/06/17 06:30:54;;;;;;;;;;;;;;;15.94;63.41;99497.34;4211483;28;19916;-70
2022/06/17 06:32:59;;;;;;;;;;;;;;;15.99;62.71;99498.97;4217424;28;20313;-71
2022/06/17 06:34:59;;;;;;;;;;;;;;;16.10;64.22;99502.63;4210694;28;19915;-70
2022/06/17 06:36:59;;;;;;;;;;;;;;;16.17;61.61;99505.47;4218973;28;20383;-70
2022/06/17 06:38:59;;;;;;;;;;;;;;;16.24;61.62;99501.91;4215690;28;19926;-70
2022/06/17 06:41:01;;;;;;;;;;;;;;;16.29;62.15;99501.50;4210410;28;19924;-70
2022/06/17 06:43:02;;;;;;;;;;;;;;;16.37;61.15;99499.56;4220316;28;20157;-70
2022/06/17 06:45:03;;;;;;;;;;;;;;;16.47;62.30;99498.81;4216133;28;19926;-71
2022/06/17 06:47:04;;;;;;;;;;;;;;;16.56;61.69;99507.63;4209674;28;19923;-70
2022/06/17 06:49:04;;;;;;;;;;;;;;;16.65;60.84;99502.47;4210194;28;20400;-70
2022/06/17 06:51:04;;;;;;;;;;;;;;;16.66;59.54;99498.47;4214781;28;19920;-70
2022/06/17 06:53:05;;;;;;;;;;;;;;;16.62;59.23;99506.03;4216278;28;20085;-70
2022/06/17 06:55:06;;;;;;;;;;;;;;;16.62;59.30;99497.66;4218267;28;20356;-70
2022/06/17 06:57:06;;;;;;;;;;;;;;;16.64;59.61;99497.28;4213327;28;19923;-70
2022/06/17 06:59:06;;;;;;;;;;;;;;;16.69;59.42;99506.09;4212986;28;19924;-70
2022/06/17 07:01:06;;;;;;;;;;;;;;;16.75;59.55;99512.13;4209365;28;19926;-70
2022/06/17 07:03:07;;;;;;;;;;;;;;;16.79;58.79;99518.50;4211578;28;19920;-70
2022/06/17 07:05:08;;;;;;;;;;;;;;;16.80;58.82;99514.53;4213176;28;19920;-70
2022/06/17 07:07:09;;;;;;;;;;;;;;;16.94;59.89;99522.94;4222492;28;19998;-70
2022/06/17 07:09:12;;;;;;;;;;;;;;;17.04;56.99;99519.34;4214442;28;20407;-70
2022/06/17 07:11:16;;;;;;;;;;;;;;;17.09;58.13;99513.38;4214450;28;19915;-71
2022/06/17 07:13:16;;;;;;;;;;;;;;;17.22;59.42;99527.00;4214849;28;20397;-71
2022/06/17 07:15:16;;;;;;;;;;;;;;;17.28;57.25;99522.59;4211080;28;19972;-71
2022/06/17 07:17:17;;;;;;;;;;;;;;;17.38;56.34;99528.22;4215177;28;19985;-71
2022/06/17 07:19:17;;;;;;;;;;;;;;;17.45;56.89;99530.19;4213874;28;19967;-71
2022/06/17 07:21:17;;;;;;;;;;;;;;;17.47;56.95;99529.81;4219793;28;20243;-71
2022/06/17 07:23:19;;;;;;;;;;;;;;;17.53;56.72;99525.41;4214039;28;19922;-71
2022/06/17 07:25:20;;;;;;;;;;;;;;;17.54;55.47;99518.59;4213109;28;19975;-71
2022/06/17 07:27:20;;;;;;;;;;;;;;;17.58;55.75;99525.03;4208600;28;19920;-71
2022/06/17 07:29:21;;;;;;;;;;;;;;;17.66;54.78;99533.00;4214740;28;20377;-71
2022/06/17 07:31:22;;;;;;;;;;;;;;;17.66;54.58;99527.41;4212229;28;20492;-71
2022/06/17 07:33:23;;;;;;;;;;;;;;;17.74;54.81;99536.66;4214101;28;20584;-71
2022/06/17 07:35:24;;;;;;;;;;;;;;;17.85;55.84;99528.22;4216901;28;20174;-71
2022/06/17 07:39:55;;;;;;;;;;;;;;;18.04;53.50;99532.59;4214049;28;19938;-71
2022/06/17 07:41:55;;;;;;;;;;;;;;;18.17;53.42;99531.78;4213120;28;19916;-71
2022/06/17 07:43:56;;;;;;;;;;;;;;;18.16;52.50;99523.78;4213080;28;20233;-71
2022/06/17 07:45:56;;;;;;;;;;;;;;;18.17;52.40;99528.97;4214789;28;19924;-71
2022/06/17 07:47:57;;;;;;;;;;;;;;;18.18;53.29;99530.56;4216052;28;19924;-71
2022/06/17 07:49:57;;;;;;;;;;;;;;;18.25;53.05;99529.75;4205715;28;20303;-71
2022/06/17 07:51:57;;;;;;;;;;;;;;;18.29;52.38;99524.97;4216065;28;19969;-71
2022/06/17 07:53:57;;;;;;;;;;;;;;;18.34;52.75;99530.13;4214056;28;19923;-71
2022/06/17 07:55:58;;;;;;;;;;;;;;;18.46;52.01;99518.50;4209086;28;19919;-71
2022/06/17 07:57:59;;;;;;;;;;;;;;;18.50;50.62;99513.66;4210266;28;19959;-71
2022/06/17 07:59:59;;;;;;;;;;;;;;;18.60;49.78;99517.63;4213826;28;19927;-71
2022/06/17 08:01:59;;;;;;;;;;;;;;;18.65;49.49;99519.22;4219126;28;20383;-71
2022/06/17 08:04:00;;;;;;;;;;;;;;;18.64;49.40;99523.22;4209469;28;19919;-71
2022/06/17 08:06:02;;;;;;;;;;;;;;;18.77;49.64;99518.78;4214301;28;20332;-71
2022/06/17 08:08:04;;;;;;;;;;;;;;;18.81;49.35;99511.16;4214022;28;20015;-71
2022/06/17 08:10:05;;;;;;;;;;;;;;;18.85;49.33;99509.13;4206826;28;20321;-71
2022/06/17 08:12:08;;;;;;;;;;;;;;;18.89;49.47;99503.50;4212380;28;20083;-71
2022/06/17 08:14:08;;;;;;;;;;;;;;;18.95;49.70;99499.88;4217923;28;19918;-71
2022/06/17 08:16:11;;;;;;;;;;;;;;;18.99;47.15;99503.44;4206503;28;20334;-71
2022/06/17 08:18:11;;;;;;;;;;;;;;;18.99;46.61;99495.03;4214259;28;20245;-71
2022/06/17 08:20:17;;;;;;;;;;;;;;;19.04;46.41;99491.78;4213810;28;20278;-71
2022/06/17 08:22:20;;;;;;;;;;;;;;;19.05;46.27;99484.97;4213369;28;19931;-71
2022/06/17 08:24:20;;;;;;;;;;;;;;;19.14;45.98;99490.13;4211291;28;19916;-71
2022/06/17 08:26:20;;;;;;;;;;;;;;;19.15;47.15;99496.53;4215253;28;19942;-71
2022/06/17 08:28:21;;;;;;;;;;;;;;;19.27;46.22;99484.81;4213429;28;19920;-71
2022/06/17 08:30:24;;;;;;;;;;;;;;;19.33;45.61;99481.16;4212983;28;20193;-71
2022/06/17 08:34:43;;;;;;;;;;;;;;;19.42;44.54;99479.88;4213114;28;19926;-71
2022/06/17 08:36:43;;;;;;;;;;;;;;;19.49;45.17;99480.63;4212744;27;19920;-71
2022/06/17 08:38:49;;;;;;;;;;;;;;;19.56;46.33;99476.97;4207498;28;19923;-71
2022/06/17 08:40:52;;;;;;;;;;;;;;;19.62;45.62;99480.97;4211416;28;19920;-71
2022/06/17 08:43:01;;;;;;;;;;;;;;;19.71;45.21;99481.28;4211699;28;19922;-71
2022/06/17 08:45:20;;;;;;;;;;;;;;;19.75;45.15;99482.03;4211687;28;19916;-71
2022/06/17 08:47:40;;;;;;;;;;;;;;;19.64;43.06;99486.94;4208770;28;20309;-71
2022/06/17 08:50:07;;;;;;;;;;;;;;;19.70;44.17;99484.50;4213056;28;19963;-71
2022/06/17 08:52:32;;;;;;;;;;;;;;;19.71;43.52;99478.47;4213165;28;19950;-71
2022/06/17 08:54:33;;;;;;;;;;;;;;;19.81;43.25;99488.78;4211780;28;19922;-71
2022/06/17 08:56:41;;;;;;;;;;;;;;;19.72;42.80;99493.28;4210269;28;20010;-71
2022/06/17 08:58:41;;;;;;;;;;;;;;;19.71;42.56;99495.31;4216541;28;19943;-71
2022/06/17 09:00:50;;;;;;;;;;;;;;;19.71;42.50;99492.50;4211967;28;19920;-71
2022/06/17 09:02:53;;;;;;;;;;;;;;;19.81;42.50;99485.97;4211734;28;19919;-71
2022/06/17 09:04:59;;;;;;;;;;;;;;;19.94;43.73;99491.84;4208678;28;19920;-71
2022/06/17 09:07:18;;;;;;;;;;;;;;;20.08;42.63;99486.09;4208993;28;19944;-71
2022/06/17 09:09:34;;;;;;;;;;;;;;;20.15;43.39;99493.66;4212703;28;19920;-70
2022/06/17 09:11:34;;;;;;;;;;;;;;;20.26;42.65;99477.47;4212194;28;19920;-70
2022/06/17 09:13:40;;;;;;;;;;;;;;;20.27;43.13;99476.25;4212472;28;20078;-71
2022/06/17 09:15:44;;;;;;;;;;;;;;;20.39;43.01;99486.16;4214685;28;19919;-71
2022/06/17 09:17:53;;;;;;;;;;;;;;;20.39;42.55;99486.16;4209893;28;19939;-71
2022/06/17 09:19:58;;;;;;;;;;;;;;;20.42;41.16;99477.66;4210542;28;19920;-71
2022/06/17 09:22:04;;;;;;;;;;;;;;;20.44;41.76;99475.28;4213136;28;19912;-71
2022/06/17 09:24:06;;;;;;;;;;;;;;;20.52;42.73;99478.81;4214296;28;19951;-71
2022/06/17 09:26:10;;;;;;;;;;;;;;;20.67;40.07;99474.56;4212759;28;20423;-71
2022/06/17 09:28:33;;;;;;;;;;;;;;;20.67;40.31;99471.75;4208015;28;19926;-71
2022/06/17 09:30:37;;;;;;;;;;;;;;;20.73;40.65;99461.63;4200739;28;20330;-71
2022/06/17 09:32:41;;;;;;;;;;;;;;;20.88;41.42;99453.78;4213170;28;19920;-71
2022/06/17 09:34:47;;;;;;;;;;;;;;;21.02;41.96;99450.78;4211469;28;19920;-71
2022/06/17 09:36:47;;;;;;;;;;;;;;;21.18;41.60;99449.31;4211491;28;19928;-71
2022/06/17 09:38:48;;;;;;;;;;;;;;;21.28;40.93;99454.81;4206134;28;20070;-71
2022/06/17 09:40:51;;;;;;;;;;;;;;;21.37;40.37;99453.47;4211077;28;19920;-71
2022/06/17 09:43:17;;;;;;;;;;;;;;;21.38;41.29;99453.03;4216957;28;20434;-71
2022/06/17 09:45:23;;;;;;;;;;;;;;;21.39;40.80;99448.19;4207530;28;19920;-71
2022/06/17 09:47:28;;;;;;;;;;;;;;;21.47;41.28;99435.59;4211263;28;19916;-71
2022/06/17 09:49:41;;;;;;;;;;;;;;;21.23;41.83;99441.19;4211569;28;20449;-71
2022/06/17 09:51:43;;;;;;;;;;;;;;;21.21;41.51;99440.81;4210986;28;20031;-71
2022/06/17 09:53:47;;;;;;;;;;;;;;;21.26;40.98;99447.97;4209913;28;19958;-71
2022/06/17 09:55:52;;;;;;;;;;;;;;;21.29;39.41;99452.78;4208467;28;19916;-71
2022/06/17 09:57:59;;;;;;;;;;;;;;;21.35;38.94;99451.09;4211045;28;19922;-71
2022/06/17 10:00:07;;;;;;;;;;;;;;;21.48;39.10;99454.06;4209825;28;20380;-71
2022/06/17 10:02:21;;;;;;;;;;;;;;;21.61;37.71;99448.66;4208171;28;19920;-71
2022/06/17 10:04:23;;;;;;;;;;;;;;;21.73;38.22;99454.44;4210717;28;19916;-71
2022/06/17 10:06:56;;;;;;;;;;;;;;;21.84;38.09;99452.19;4210623;28;21072;-71
2022/06/17 10:09:12;;;;;;;;;;;;;;;21.99;36.09;99446.31;4162278;28;20423;-71
2022/06/17 10:11:24;;;;;;;;;;;;;;;22.11;35.85;99448.53;4213796;28;19963;-71
2022/06/17 10:13:40;;;;;;;;;;;;;;;22.15;34.88;99450.03;4207171;28;19916;-71
2022/06/17 10:18:33;;;;;;;;;;;;;;;22.32;36.75;99434.00;4210135;28;19946;-71
2022/06/17 10:20:53;;;;;;;;;;;;;;;22.54;37.52;99439.97;4208834;28;20008;-71
2022/06/17 10:23:12;;;;;;;;;;;;;;;22.70;36.32;99425.91;4211004;28;20011;-71
2022/06/17 10:25:26;;;;;;;;;;;;;;;22.87;37.00;99426.78;4207660;28;20360;-71
2022/06/17 10:27:27;;;;;;;;;;;;;;;22.92;34.32;99423.44;4216549;28;19923;-71
2022/06/17 10:29:45;;;;;;;;;;;;;;;22.97;34.83;99422.09;4210170;28;20287;-71
2022/06/17 10:31:47;;;;;;;;;;;;;;;22.95;33.83;99416.91;4206742;28;20419;-71
2022/06/17 10:33:47;;;;;;;;;;;;;;;23.00;34.53;99409.94;4213763;28;19981;-71
2022/06/17 10:35:48;;;;;;;;;;;;;;;22.98;33.67;99409.59;4212173;28;20207;-71
2022/06/17 10:37:49;;;;;;;;;;;;;;;23.04;34.20;99416.28;4210722;28;19998;-71
2022/06/17 10:39:50;;;;;;;;;;;;;;;23.02;33.16;99415.16;4208484;28;19916;-71
2022/06/17 10:41:51;;;;;;;;;;;;;;;23.04;32.65;99409.84;4214032;28;19969;-71
2022/06/17 10:43:52;;;;;;;;;;;;;;;23.02;31.62;99413.13;4217953;28;19961;-71
2022/06/17 10:45:52;;;;;;;;;;;;;;;22.97;31.17;99416.47;4215048;28;19927;-71
2022/06/17 10:48:12;;;;;;;;;;;;;;;23.10;32.00;99411.72;4212195;28;20190;-71
2022/06/17 10:50:14;;;;;;;;;;;;;;;23.07;32.00;99412.59;4215946;28;19923;-71
2022/06/17 10:52:19;;;;;;;;;;;;;;;23.14;32.46;99418.06;4215448;28;19916;-71
2022/06/17 10:54:31;;;;;;;;;;;;;;;23.21;32.41;99408.63;4213985;28;19916;-71